createdAt,value
2023-05-02T00:01:09.685Z,13.86
2023-05-02T00:03:22.862Z,13.87
2023-05-02T00:05:35.488Z,13.85
2023-05-02T00:07:48.302Z,13.85
2023-05-02T00:10:03.083Z,13.84
2023-05-02T00:12:15.869Z,13.84
2023-05-02T00:14:28.406Z,13.83
2023-05-02T00:16:41.232Z,13.82
2023-05-02T00:18:53.915Z,13.79
2023-05-02T00:21:07.160Z,13.78
2023-05-02T00:23:19.725Z,13.78
2023-05-02T00:25:32.474Z,13.78
2023-05-02T00:27:46.803Z,13.79
2023-05-02T00:30:00.651Z,13.78
2023-05-02T00:32:13.578Z,13.76
2023-05-02T00:34:31.055Z,13.74
2023-05-02T00:36:43.618Z,13.71
2023-05-02T00:38:56.159Z,13.70
2023-05-02T00:41:08.832Z,13.71
2023-05-02T00:43:21.480Z,13.71
2023-05-02T00:45:34.020Z,13.69
2023-05-02T00:47:46.655Z,13.66
2023-05-02T00:50:01.160Z,13.64
2023-05-02T00:52:14.271Z,13.62
2023-05-02T00:54:27.054Z,13.61
2023-05-02T00:56:40.070Z,13.60
2023-05-02T00:58:53.759Z,13.60
2023-05-02T01:01:28.003Z,13.60
2023-05-02T01:04:15.210Z,13.58
2023-05-02T01:06:46.315Z,13.53
2023-05-02T01:09:23.174Z,13.52
2023-05-02T01:11:48.304Z,13.49
2023-05-02T01:14:05.958Z,13.49
2023-05-02T01:16:20.144Z,13.49
2023-05-02T01:18:36.871Z,13.50
2023-05-02T01:20:57.241Z,13.49
2023-05-02T01:23:30.791Z,13.49
2023-05-02T01:25:56.708Z,13.47
2023-05-02T01:28:15.100Z,13.44
2023-05-02T01:30:30.869Z,13.42
2023-05-02T01:32:46.599Z,13.40
2023-05-02T01:35:01.830Z,13.35
2023-05-02T01:37:17.735Z,13.32
2023-05-02T01:39:31.011Z,13.30
2023-05-02T01:41:45.081Z,13.28
2023-05-02T01:43:59.411Z,13.25
2023-05-02T01:46:15.127Z,13.16
2023-05-02T01:48:28.535Z,13.12
2023-05-02T01:50:43.830Z,13.10
2023-05-02T01:52:58.779Z,13.06
2023-05-02T01:55:14.291Z,12.96
2023-05-02T01:57:27.462Z,12.91
2023-05-02T01:59:41.068Z,12.89
2023-05-02T02:01:55.762Z,12.89
2023-05-02T02:04:11.286Z,12.92
2023-05-02T02:06:24.822Z,12.95
2023-05-02T02:08:37.519Z,12.98
2023-05-02T02:10:59.551Z,13.00
2023-05-02T02:13:27.664Z,12.97
2023-05-02T02:15:42.198Z,12.87
2023-05-02T02:18:07.683Z,12.82
2023-05-02T02:20:21.896Z,12.74
2023-05-02T02:22:38.833Z,12.68
2023-05-02T02:24:54.413Z,12.64
2023-05-02T02:27:07.232Z,12.57
2023-05-02T02:29:19.791Z,12.55
2023-05-02T02:31:36.085Z,12.55
2023-05-02T02:33:48.808Z,12.57
2023-05-02T02:36:24.998Z,12.59
2023-05-02T02:38:44.945Z,12.56
2023-05-02T02:41:06.780Z,12.55
2023-05-02T02:43:48.094Z,12.54
2023-05-02T02:46:19.526Z,12.47
2023-05-02T02:48:48.781Z,12.46
2023-05-02T02:51:15.945Z,12.46
2023-05-02T02:53:46.981Z,12.46
2023-05-02T02:56:06.636Z,12.47
2023-05-02T02:58:37.069Z,12.49
2023-05-02T03:00:50.386Z,12.49
2023-05-02T03:03:03.439Z,12.51
2023-05-02T03:05:16.922Z,12.56
2023-05-02T03:07:29.760Z,12.63
2023-05-02T03:09:47.063Z,12.70
2023-05-02T03:11:59.643Z,12.77
2023-05-02T03:14:12.378Z,12.84
2023-05-02T03:16:35.300Z,12.92
2023-05-02T03:18:47.964Z,12.98
2023-05-02T03:21:01.020Z,13.04
2023-05-02T03:23:13.569Z,13.09
2023-05-02T03:25:26.317Z,13.14
2023-05-02T03:27:38.902Z,13.18
2023-05-02T03:29:51.534Z,13.21
2023-05-02T03:32:04.313Z,13.23
2023-05-02T03:34:17.072Z,13.26
2023-05-02T03:36:29.628Z,13.27
2023-05-02T03:38:42.191Z,13.30
2023-05-02T03:40:57.288Z,13.33
2023-05-02T03:43:09.887Z,13.36
2023-05-02T03:45:22.452Z,13.39
2023-05-02T03:47:35.146Z,13.42
2023-05-02T03:49:47.772Z,13.44
2023-05-02T03:52:00.888Z,13.45
2023-05-02T03:54:13.473Z,13.46
2023-05-02T03:56:26.052Z,13.47
2023-05-02T03:58:38.643Z,13.46
2023-05-02T04:00:53.510Z,13.45
2023-05-02T04:03:07.230Z,13.46
2023-05-02T04:05:19.909Z,13.46
2023-05-02T04:07:32.427Z,13.48
2023-05-02T04:09:45.793Z,13.50
2023-05-02T04:11:58.438Z,13.50
2023-05-02T04:14:11.033Z,13.54
2023-05-02T04:16:23.795Z,13.54
2023-05-02T04:18:36.481Z,13.55
2023-05-02T04:20:50.455Z,13.57
2023-05-02T04:23:03.078Z,13.53
2023-05-02T04:25:16.165Z,13.49
2023-05-02T04:27:28.679Z,13.45
2023-05-02T04:29:41.238Z,13.44
2023-05-02T04:31:53.950Z,13.45
2023-05-02T04:34:07.034Z,13.46
2023-05-02T04:36:19.719Z,13.45
2023-05-02T04:38:32.348Z,13.43
2023-05-02T04:40:45.930Z,13.42
2023-05-02T04:42:58.492Z,13.38
2023-05-02T04:45:11.234Z,13.36
2023-05-02T04:47:23.874Z,13.33
2023-05-02T04:49:36.553Z,13.32
2023-05-02T04:51:49.152Z,13.28
2023-05-02T04:54:01.767Z,13.26
2023-05-02T04:56:14.371Z,13.24
2023-05-02T04:58:27.130Z,13.22
2023-05-02T05:00:39.713Z,13.27
2023-05-02T05:02:52.933Z,13.32
2023-05-02T05:05:06.094Z,13.38
2023-05-02T05:07:18.628Z,13.40
2023-05-02T05:09:31.179Z,13.46
2023-05-02T05:11:45.380Z,13.50
2023-05-02T05:13:58.370Z,13.54
2023-05-02T05:16:10.955Z,13.59
2023-05-02T05:18:23.802Z,13.59
2023-05-02T05:20:36.354Z,13.59
2023-05-02T05:22:48.949Z,13.61
2023-05-02T05:25:01.619Z,13.65
2023-05-02T05:27:14.139Z,13.69
2023-05-02T05:29:26.735Z,13.72
2023-05-02T05:31:39.304Z,13.70
2023-05-02T05:33:51.886Z,13.70
2023-05-02T05:36:09.124Z,13.74
2023-05-02T05:38:21.701Z,13.79
2023-05-02T05:40:34.216Z,13.87
2023-05-02T05:42:46.808Z,13.89
2023-05-02T05:44:59.297Z,13.91
2023-05-02T05:47:12.198Z,13.97
2023-05-02T05:49:25.050Z,14.03
2023-05-02T05:51:37.582Z,14.10
2023-05-02T05:53:50.114Z,14.17
2023-05-02T05:56:13.184Z,14.26
2023-05-02T05:58:25.944Z,14.36
2023-05-02T06:00:39.795Z,14.44
2023-05-02T06:02:52.425Z,14.50
2023-05-02T06:05:05.574Z,14.57
2023-05-02T06:07:18.151Z,14.59
2023-05-02T06:09:30.801Z,14.62
2023-05-02T06:11:43.295Z,14.69
2023-05-02T06:13:55.959Z,14.79
2023-05-02T06:16:08.508Z,14.89
2023-05-02T06:18:21.591Z,14.93
2023-05-02T06:20:36.649Z,14.95
2023-05-02T06:22:49.183Z,14.99
2023-05-02T06:25:02.005Z,15.04
2023-05-02T06:27:14.517Z,15.12
2023-05-02T06:29:27.042Z,15.20
2023-05-02T06:31:39.543Z,15.30
2023-05-02T06:33:52.506Z,15.39
2023-05-02T06:36:05.180Z,15.48
2023-05-02T06:38:18.532Z,15.63
2023-05-02T06:40:31.264Z,15.72
2023-05-02T06:42:43.787Z,15.82
2023-05-02T06:44:56.524Z,15.96
2023-05-02T06:47:09.115Z,16.12
2023-05-02T06:49:22.494Z,16.27
2023-05-02T06:51:35.027Z,16.42
2023-05-02T06:53:47.648Z,16.57
2023-05-02T06:56:00.247Z,16.64
2023-05-02T06:58:12.921Z,16.75
2023-05-02T07:00:25.778Z,16.81
2023-05-02T07:02:38.500Z,16.88
2023-05-02T07:04:51.110Z,16.93
2023-05-02T07:07:04.094Z,16.98
2023-05-02T07:09:16.851Z,16.99
2023-05-02T07:11:29.379Z,17.02
2023-05-02T07:13:41.906Z,17.02
2023-05-02T07:15:54.666Z,17.03
2023-05-02T07:18:07.269Z,17.05
2023-05-02T07:20:20.127Z,17.07
2023-05-02T07:22:32.706Z,17.08
2023-05-02T07:24:45.344Z,17.09
2023-05-02T07:26:58.066Z,17.21
2023-05-02T07:29:10.948Z,17.35
2023-05-02T07:31:23.696Z,17.46
2023-05-02T07:33:36.475Z,17.51
2023-05-02T07:35:49.626Z,17.51
2023-05-02T07:38:02.139Z,17.63
2023-05-02T07:40:14.939Z,17.80
2023-05-02T07:42:31.140Z,17.82
2023-05-02T07:44:43.691Z,17.80
2023-05-02T07:46:56.276Z,17.82
2023-05-02T07:49:08.884Z,17.87
2023-05-02T07:51:21.668Z,17.99
2023-05-02T07:53:34.595Z,18.08
2023-05-02T07:55:47.526Z,18.17
2023-05-02T07:58:00.557Z,18.25
2023-05-02T08:00:13.940Z,18.30
2023-05-02T08:02:27.508Z,18.43
2023-05-02T08:04:41.058Z,18.55
2023-05-02T08:06:54.888Z,18.62
2023-05-02T08:09:07.665Z,18.77
2023-05-02T08:11:22.574Z,18.97
2023-05-02T08:13:36.374Z,19.12
2023-05-02T08:15:48.958Z,19.12
2023-05-02T08:18:01.649Z,19.06
2023-05-02T08:20:14.170Z,18.99
2023-05-02T08:22:26.734Z,18.97
2023-05-02T08:24:39.361Z,18.99
2023-05-02T08:26:51.900Z,19.06
2023-05-02T08:29:04.787Z,19.19
2023-05-02T08:31:17.619Z,19.28
2023-05-02T08:33:30.173Z,19.29
2023-05-02T08:35:42.929Z,19.25
2023-05-02T08:37:56.103Z,19.10
2023-05-02T08:40:12.063Z,19.03
2023-05-02T08:42:25.784Z,19.01
2023-05-02T08:44:38.385Z,19.00
2023-05-02T08:46:52.378Z,19.04
2023-05-02T08:49:05.523Z,19.08
2023-05-02T08:53:34.975Z,19.03
2023-05-02T08:55:49.147Z,19.02
2023-05-02T08:58:03.806Z,19.09
2023-05-02T09:00:17.598Z,19.18
2023-05-02T09:02:55.767Z,19.19
2023-05-02T09:05:12.230Z,19.17
2023-05-02T09:07:24.800Z,19.19
2023-05-02T09:09:37.662Z,19.27
2023-05-02T09:11:51.736Z,19.31
2023-05-02T09:14:14.724Z,19.29
2023-05-02T09:16:28.461Z,19.30
2023-05-02T09:18:47.201Z,19.34
2023-05-02T09:21:01.235Z,19.21
2023-05-02T09:23:14.226Z,19.15
2023-05-02T09:25:41.087Z,19.12
2023-05-02T09:27:55.882Z,19.08
2023-05-02T09:30:25.502Z,19.10
2023-05-02T09:32:44.981Z,19.14
2023-05-02T09:35:07.584Z,19.12
2023-05-02T09:37:35.966Z,19.06
2023-05-02T09:40:06.743Z,19.06
2023-05-02T09:42:31.219Z,19.10
2023-05-02T09:44:43.986Z,19.04
2023-05-02T09:47:02.129Z,19.07
2023-05-02T09:49:18.671Z,19.13
2023-05-02T09:51:31.326Z,19.28
2023-05-02T09:53:45.155Z,19.32
2023-05-02T09:56:04.634Z,19.40
2023-05-02T09:58:22.766Z,19.39
2023-05-02T10:00:39.906Z,19.36
2023-05-02T10:02:52.485Z,19.41
2023-05-02T10:05:10.159Z,19.52
2023-05-02T10:07:23.078Z,19.71
2023-05-02T10:09:36.322Z,19.84
2023-05-02T10:11:56.561Z,19.92
2023-05-02T10:14:10.361Z,19.97
2023-05-02T10:16:29.052Z,20.09
2023-05-02T10:19:07.423Z,20.27
2023-05-02T10:21:30.038Z,20.47
2023-05-02T10:23:44.159Z,20.58
2023-05-02T10:26:00.283Z,20.71
2023-05-02T10:28:13.183Z,20.85
2023-05-02T10:30:26.533Z,21.09
2023-05-02T10:32:40.451Z,21.24
2023-05-02T10:34:56.511Z,21.28
2023-05-02T10:37:09.088Z,21.25
2023-05-02T10:39:24.460Z,21.21
2023-05-02T10:41:39.812Z,21.40
2023-05-02T10:43:52.845Z,21.58
2023-05-02T10:46:35.900Z,21.70
2023-05-02T10:49:07.893Z,21.99
2023-05-02T10:51:29.763Z,21.96
2023-05-02T10:53:44.827Z,22.03
2023-05-02T10:56:17.442Z,22.22
2023-05-02T10:58:30.018Z,22.36
2023-05-02T11:00:42.598Z,22.36
2023-05-02T11:02:55.692Z,22.34
2023-05-02T11:05:08.415Z,22.42
2023-05-02T11:07:21.028Z,22.41
2023-05-02T11:09:33.743Z,22.40
2023-05-02T11:11:48.179Z,22.31
2023-05-02T11:14:00.793Z,22.12
2023-05-02T11:16:14.098Z,22.20
2023-05-02T11:18:26.923Z,22.22
2023-05-02T11:20:41.183Z,22.12
2023-05-02T11:22:55.779Z,22.05
2023-05-02T11:25:30.826Z,22.02
2023-05-02T11:27:45.546Z,21.95
2023-05-02T11:30:06.669Z,22.01
2023-05-02T11:32:19.315Z,22.18
2023-05-02T11:34:41.193Z,22.39
2023-05-02T11:36:53.854Z,22.42
2023-05-02T11:39:19.252Z,22.49
2023-05-02T11:41:41.666Z,22.31
2023-05-02T11:44:03.526Z,22.17
2023-05-02T11:46:17.461Z,22.22
2023-05-02T11:48:30.890Z,22.40
2023-05-02T11:50:49.554Z,22.55
2023-05-02T11:53:03.101Z,22.62
2023-05-02T11:55:15.888Z,22.72
2023-05-02T11:57:28.553Z,22.68
2023-05-02T11:59:55.252Z,22.72
2023-05-02T12:02:07.896Z,22.82
2023-05-02T12:04:23.912Z,23.03
2023-05-02T12:06:36.545Z,23.11
2023-05-02T12:08:49.443Z,23.12
2023-05-02T12:11:02.156Z,23.22
2023-05-02T12:13:15.066Z,23.08
2023-05-02T12:15:27.780Z,23.11
2023-05-02T12:17:42.829Z,22.86
2023-05-02T12:19:55.702Z,22.38
2023-05-02T12:22:09.826Z,22.00
2023-05-02T12:24:22.567Z,21.20
2023-05-02T12:26:35.128Z,20.20
2023-05-02T12:28:49.570Z,19.37
2023-05-02T12:31:11.028Z,18.51
2023-05-02T12:33:23.768Z,17.69
2023-05-02T12:35:36.622Z,17.17
2023-05-02T12:37:49.331Z,16.71
2023-05-02T12:40:02.214Z,16.38
2023-05-02T12:42:16.818Z,16.21
2023-05-02T12:44:43.261Z,16.00
2023-05-02T12:47:00.921Z,15.60
2023-05-02T12:49:13.572Z,15.37
2023-05-02T12:51:28.501Z,15.37
2023-05-02T12:53:45.791Z,15.40
2023-05-02T12:56:03.711Z,15.50
2023-05-02T12:58:17.096Z,15.57
2023-05-02T13:00:36.606Z,15.64
2023-05-02T13:02:49.508Z,15.67
2023-05-02T13:05:02.086Z,15.73
2023-05-02T13:07:14.632Z,15.85
2023-05-02T13:09:27.172Z,15.95
2023-05-02T13:11:39.788Z,16.05
2023-05-02T13:13:52.634Z,16.20
2023-05-02T13:16:05.579Z,16.38
2023-05-02T13:18:18.201Z,16.58
2023-05-02T13:20:31.239Z,16.94
2023-05-02T13:22:43.802Z,17.30
2023-05-02T13:24:56.322Z,17.63
2023-05-02T13:27:08.859Z,17.95
2023-05-02T13:29:21.498Z,18.17
2023-05-02T13:31:34.008Z,18.26
2023-05-02T13:33:46.544Z,18.30
2023-05-02T13:35:59.408Z,18.50
2023-05-02T13:38:12.015Z,18.73
2023-05-02T13:40:24.642Z,18.86
2023-05-02T13:42:37.185Z,18.81
2023-05-02T13:44:50.116Z,18.76
2023-05-02T13:47:02.753Z,18.85
2023-05-02T13:49:15.294Z,19.03
2023-05-02T13:51:27.964Z,19.14
2023-05-02T13:53:40.467Z,19.28
2023-05-02T13:55:53.024Z,19.37
2023-05-02T13:58:05.805Z,19.45
2023-05-02T14:00:18.560Z,19.53
2023-05-02T14:02:31.627Z,19.55
2023-05-02T14:04:44.319Z,19.57
2023-05-02T14:07:08.720Z,19.54
2023-05-02T14:09:21.332Z,19.53
2023-05-02T14:11:36.496Z,19.55
2023-05-02T14:13:49.010Z,19.54
2023-05-02T14:16:01.617Z,19.53
2023-05-02T14:18:14.310Z,19.51
2023-05-02T14:20:27.040Z,19.58
2023-05-02T14:22:39.547Z,19.73
2023-05-02T14:24:53.329Z,19.77
2023-05-02T14:27:07.663Z,19.80
2023-05-02T14:29:20.509Z,19.80
2023-05-02T14:31:33.190Z,19.77
2023-05-02T14:33:46.054Z,19.80
2023-05-02T14:35:58.541Z,19.91
2023-05-02T14:38:11.072Z,19.93
2023-05-02T14:40:23.615Z,19.88
2023-05-02T14:42:36.153Z,19.83
2023-05-02T14:44:48.699Z,19.81
2023-05-02T14:47:01.269Z,19.78
2023-05-02T14:49:13.796Z,19.75
2023-05-02T14:51:26.469Z,19.64
2023-05-02T14:53:39.601Z,19.58
2023-05-02T14:55:52.151Z,19.51
2023-05-02T14:58:08.937Z,19.46
2023-05-02T15:00:21.584Z,19.36
2023-05-02T15:02:34.600Z,19.28
2023-05-02T15:04:47.395Z,19.18
2023-05-02T15:07:01.041Z,19.12
2023-05-02T15:09:14.287Z,19.14
2023-05-02T15:11:26.781Z,19.16
2023-05-02T15:13:39.280Z,19.14
2023-05-02T15:15:53.746Z,19.17
2023-05-02T15:18:06.665Z,19.16
2023-05-02T15:20:19.586Z,19.14
2023-05-02T15:22:32.222Z,19.13
2023-05-02T15:24:44.750Z,19.17
2023-05-02T15:26:57.315Z,19.14
2023-05-02T15:29:09.834Z,19.12
2023-05-02T15:31:22.955Z,19.08
2023-05-02T15:33:35.519Z,19.08
2023-05-02T15:35:56.225Z,19.05
2023-05-02T15:38:09.077Z,19.03
2023-05-02T15:40:21.622Z,19.06
2023-05-02T15:42:37.265Z,19.11
2023-05-02T15:44:49.916Z,19.11
2023-05-02T15:47:02.993Z,19.12
2023-05-02T15:49:15.794Z,19.09
2023-05-02T15:51:28.363Z,19.10
2023-05-02T15:53:44.093Z,19.11
2023-05-02T15:55:56.940Z,19.13
2023-05-02T15:58:10.059Z,19.12
2023-05-02T16:00:22.693Z,19.11
2023-05-02T16:02:35.432Z,19.11
2023-05-02T16:04:47.987Z,19.12
2023-05-02T16:07:01.741Z,19.14
2023-05-02T16:09:14.462Z,19.12
2023-05-02T16:11:27.029Z,19.09
2023-05-02T16:13:40.371Z,19.06
2023-05-02T16:15:53.077Z,19.01
2023-05-02T16:18:05.939Z,18.97
2023-05-02T16:20:18.958Z,18.94
2023-05-02T16:22:31.479Z,18.87
2023-05-02T16:24:44.049Z,18.79
2023-05-02T16:26:56.586Z,18.73
2023-05-02T16:29:09.087Z,18.68
2023-05-02T16:31:21.667Z,18.65
2023-05-02T16:33:34.247Z,18.63
2023-05-02T16:35:47.199Z,18.64
2023-05-02T16:37:59.733Z,18.65
2023-05-02T16:40:12.888Z,18.61
2023-05-02T16:42:25.620Z,18.56
2023-05-02T16:44:38.172Z,18.42
2023-05-02T16:46:51.323Z,18.27
2023-05-02T16:49:03.887Z,18.19
2023-05-02T16:51:16.662Z,18.13
2023-05-02T16:53:30.494Z,18.07
2023-05-02T16:55:42.999Z,18.07
2023-05-02T16:57:55.687Z,18.04
2023-05-02T17:00:11.067Z,17.93
2023-05-02T17:02:24.733Z,17.79
2023-05-02T17:04:37.596Z,17.70
2023-05-02T17:06:50.301Z,17.59
2023-05-02T17:09:03.697Z,17.49
2023-05-02T17:11:17.408Z,17.41
2023-05-02T17:13:30.002Z,17.33
2023-05-02T17:15:42.678Z,17.26
2023-05-02T17:17:55.429Z,17.23
2023-05-02T17:20:08.247Z,17.19
2023-05-02T17:22:21.296Z,17.13
2023-05-02T17:24:34.434Z,17.07
2023-05-02T17:26:47.246Z,17.01
2023-05-02T17:28:59.718Z,16.98
2023-05-02T17:31:13.048Z,16.94
2023-05-02T17:33:27.368Z,16.89
2023-05-02T17:35:40.026Z,16.86
2023-05-02T17:37:52.605Z,16.81
2023-05-02T17:40:06.053Z,16.78
2023-05-02T17:42:18.619Z,16.75
2023-05-02T17:44:31.560Z,16.69
2023-05-02T17:46:44.320Z,16.64
2023-05-02T17:48:57.574Z,16.61
2023-05-02T17:51:11.768Z,16.60
2023-05-02T17:53:24.355Z,16.55
2023-05-02T17:55:38.369Z,16.51
2023-05-02T17:57:50.902Z,16.50
2023-05-02T18:00:07.339Z,16.45
2023-05-02T18:02:21.720Z,16.42
2023-05-02T18:04:34.443Z,16.39
2023-05-02T18:06:47.082Z,16.36
2023-05-02T18:08:59.678Z,16.31
2023-05-02T18:11:16.836Z,16.28
2023-05-02T18:13:29.456Z,16.26
2023-05-02T18:15:42.081Z,16.25
2023-05-02T18:17:56.845Z,16.21
2023-05-02T18:20:10.255Z,16.20
2023-05-02T18:22:23.075Z,16.16
2023-05-02T18:24:36.146Z,16.07
2023-05-02T18:26:49.074Z,15.99
2023-05-02T18:29:02.058Z,15.94
2023-05-02T18:31:16.410Z,15.86
2023-05-02T18:33:28.958Z,15.78
2023-05-02T18:35:46.971Z,15.74
2023-05-02T18:37:59.623Z,15.69
2023-05-02T18:40:12.897Z,15.65
2023-05-02T18:42:25.604Z,15.59
2023-05-02T18:44:38.138Z,15.55
2023-05-02T18:46:50.809Z,15.54
2023-05-02T18:49:03.473Z,15.51
2023-05-02T18:51:16.085Z,15.46
2023-05-02T18:53:28.670Z,15.41
2023-05-02T18:55:41.217Z,15.37
2023-05-02T18:57:53.851Z,15.33
2023-05-02T19:00:07.004Z,15.28
2023-05-02T19:02:19.521Z,15.23
2023-05-02T19:04:32.161Z,15.19
2023-05-02T19:06:45.053Z,15.15
2023-05-02T19:08:58.643Z,15.13
2023-05-02T19:11:11.196Z,15.10
2023-05-02T19:13:26.909Z,15.10
2023-05-02T19:15:39.490Z,15.08
2023-05-02T19:17:53.895Z,15.07
2023-05-02T19:20:07.275Z,15.03
2023-05-02T19:22:22.137Z,14.97
2023-05-02T19:24:36.000Z,14.93
2023-05-02T19:26:48.650Z,14.87
2023-05-02T19:29:01.332Z,14.81
2023-05-02T19:31:18.344Z,14.76
2023-05-02T19:33:31.018Z,14.69
2023-05-02T19:35:43.588Z,14.65
2023-05-02T19:37:56.119Z,14.63
2023-05-02T19:40:10.786Z,14.59
2023-05-02T19:42:23.373Z,14.52
2023-05-02T19:44:35.900Z,14.46
2023-05-02T19:46:48.454Z,14.42
2023-05-02T19:49:00.990Z,14.40
2023-05-02T19:51:13.892Z,14.38
2023-05-02T19:53:26.419Z,14.37
2023-05-02T19:55:39.037Z,14.36
2023-05-02T19:57:51.610Z,14.33
2023-05-02T20:00:05.155Z,14.32
2023-05-02T20:02:17.806Z,14.32
2023-05-02T20:04:30.471Z,14.33
2023-05-02T20:06:43.113Z,14.31
2023-05-02T20:08:55.785Z,14.33
2023-05-02T20:11:08.377Z,14.33
2023-05-02T20:13:21.019Z,14.32
2023-05-02T20:15:33.691Z,14.27
2023-05-02T20:17:47.504Z,14.22
2023-05-02T20:20:02.327Z,14.21
2023-05-02T20:22:15.039Z,14.20
2023-05-02T20:24:27.596Z,14.21
2023-05-02T20:26:40.236Z,14.18
2023-05-02T20:28:52.801Z,14.19
2023-05-02T20:31:05.449Z,14.17
2023-05-02T20:33:18.777Z,14.14
2023-05-02T20:35:31.629Z,14.11
2023-05-02T20:37:44.165Z,14.11
2023-05-02T20:39:56.883Z,14.11
2023-05-02T20:42:09.518Z,14.10
2023-05-02T20:44:22.490Z,14.07
2023-05-02T20:46:35.296Z,14.07
2023-05-02T20:48:48.025Z,14.07
2023-05-02T20:51:00.608Z,14.05
2023-05-02T20:53:13.144Z,14.03
2023-05-02T20:55:25.828Z,14.00
2023-05-02T20:57:38.731Z,13.98
2023-05-02T20:59:51.322Z,13.94
2023-05-02T21:02:05.544Z,13.93
2023-05-02T21:04:18.130Z,13.89
2023-05-02T21:06:33.614Z,13.86
2023-05-02T21:08:46.491Z,13.82
2023-05-02T21:10:58.999Z,13.81
2023-05-02T21:13:12.038Z,13.82
2023-05-02T21:15:24.622Z,13.80
2023-05-02T21:17:39.089Z,13.78
2023-05-02T21:19:53.890Z,13.74
2023-05-02T21:22:06.460Z,13.71
2023-05-02T21:24:19.003Z,13.67
2023-05-02T21:26:31.637Z,13.64
2023-05-02T21:28:44.273Z,13.62
2023-05-02T21:30:56.770Z,13.61
2023-05-02T21:33:09.697Z,13.58
2023-05-02T21:35:22.304Z,13.56
2023-05-02T21:37:34.978Z,13.54
2023-05-02T21:39:47.647Z,13.53
2023-05-02T21:42:01.444Z,13.53
2023-05-02T21:44:14.295Z,13.53
2023-05-02T21:46:26.913Z,13.57
2023-05-02T21:48:39.703Z,13.60
2023-05-02T21:50:52.364Z,13.59
2023-05-02T21:53:04.893Z,13.59
2023-05-02T21:55:17.451Z,13.57
2023-05-02T21:57:29.975Z,13.52
2023-05-02T21:59:43.078Z,13.47
2023-05-02T22:01:55.688Z,13.43
2023-05-02T22:04:08.380Z,13.41
2023-05-02T22:06:21.138Z,13.41
2023-05-02T22:08:33.732Z,13.35
2023-05-02T22:10:46.606Z,13.32
2023-05-02T22:12:59.142Z,13.25
2023-05-02T22:15:12.826Z,13.22
2023-05-02T22:17:25.492Z,13.18
2023-05-02T22:19:38.675Z,13.20
2023-05-02T22:21:51.643Z,13.20
2023-05-02T22:24:04.535Z,13.21
2023-05-02T22:26:17.133Z,13.24
2023-05-02T22:28:29.680Z,13.28
2023-05-02T22:30:42.995Z,13.28
2023-05-02T22:32:55.823Z,13.26
2023-05-02T22:35:09.052Z,13.22
2023-05-02T22:37:21.781Z,13.17
2023-05-02T22:39:34.452Z,13.15
2023-05-02T22:41:47.045Z,13.12
2023-05-02T22:43:59.574Z,13.09
2023-05-02T22:46:12.118Z,13.06
2023-05-02T22:48:25.201Z,13.02
2023-05-02T22:50:38.529Z,12.97
2023-05-02T22:52:51.220Z,12.93
2023-05-02T22:55:09.365Z,12.88
2023-05-02T22:57:22.448Z,12.84
2023-05-02T22:59:35.018Z,12.82
2023-05-02T23:01:48.423Z,12.79
2023-05-02T23:04:01.375Z,12.77
2023-05-02T23:06:14.354Z,12.77
2023-05-02T23:08:26.993Z,12.77
2023-05-02T23:10:39.595Z,12.75
2023-05-02T23:12:52.208Z,12.72
2023-05-02T23:15:05.412Z,12.68
2023-05-02T23:17:17.991Z,12.62
2023-05-02T23:19:32.902Z,12.56
2023-05-02T23:21:45.847Z,12.50
2023-05-02T23:23:58.533Z,12.42
2023-05-02T23:26:11.391Z,12.34
2023-05-02T23:28:23.985Z,12.24
2023-05-02T23:30:38.262Z,12.20
2023-05-02T23:32:51.549Z,12.18
2023-05-02T23:35:05.769Z,12.14
2023-05-02T23:37:18.329Z,12.07
2023-05-02T23:39:30.975Z,12.04
2023-05-02T23:41:43.547Z,12.05
2023-05-02T23:43:56.110Z,12.05
2023-05-02T23:46:08.757Z,12.04
2023-05-02T23:48:21.450Z,12.02
2023-05-02T23:50:34.047Z,11.95
2023-05-02T23:52:46.624Z,11.89
2023-05-02T23:54:59.184Z,11.86
2023-05-02T23:57:11.963Z,11.85
2023-05-02T23:59:24.706Z,11.84
